Metar Aviation Weather Data     EGJJ Jersey Airport
Temperature
46°F Temperature
46°F Dewpoint
100% Humidity



Wind
8 MPH
13 KM/H
4 M/S
7 KTS



250°
WSW
Current Conditions

Partly Cloudy Partly Cloudy
Pressure 1021 (hPa) - 30.15 (inHg)
Visibility 6 (mile) - 9.7 (km)
Airport
Airport-code EGJJ

Location: Jersey Airport
Distance: 14 (mi)

Metar:
EGJJ 280620Z 25007KT 9999 FEW008 SCT013 BKN039 08/08 Q1021

Time: 28-02-2024 06:20 GMT